עמוד ראשי
METAR-TAF:

METAR-TAF

שדות תעופה :

Seiyun, תימן

קו רוחב: 15-58N, קו אורך: 048-48E, גובה: 701מטר

תצפית מזג אוויר נוכחית

הדו"ח נערך לפני 55דקות, בשעה 19:00 UTC
רוח 1קשר עם כיוונים משתנים
טמפרטורת 33 צלסיוס
לחות 15%
לחץ 1009 hPa
ראות 10 קילומטר או יותר
ללא עננים שבסיסם נמוך מ 5000 רגל או קומולונימבוס

METAR: OYSY 131900Z VRB01KT CAVOK 33/03 Q1009

זמן: 22:55 (19:55 UTC)


TAF: חסר

תצפיות ותחזיות מזג אוויר לגבי יותר מ- 4,000 שדות תעופה ברחבי העולם. דוחות METAR ו- TAF.

התחנות הזמינות מסומנות בנקודות צהובות ואדומות על גבי המפה.

העבר את העכבר לנקודה הצבעונית על מנת לראות את שם התחנה.

לאחר מכן, לחץ כדי לראות את תוכן ואת תחזיות מזג האוויר.

כדי לשנות את המפה: לחץ על הכפתורים הירוקים עם הפלוס השחור כדי להתקרב; על הכפתור הירוק עם המקף כדי להתרחק; או בחיצים הירוקים למפות סמוכות.


METAR-TAF: